Data for 01/13/2014

Time Sea-Level Adjusted Pressure Absolute Pressure Temperature Relative Humidity Dew Point   
(mb) (inHg) (mb) (inHg) (C) (F) (%) (C) (F)
00:05 1014 29.94 843 24.89 1.2 34.2 49 -8.5 16.7
00:10 1014 29.94 843 24.89 1.6 34.8 46 -8.8 16.1
00:15 1014 29.94 843 24.89 1.8 35.2 46 -8.6 16.5
00:20 1014 29.94 843 24.89 1.8 35.2 48 -8.2 17.3
00:25 1014 29.94 843 24.89 1.7 35 48 -8.1 17.4
00:30 1014 29.94 843 24.89 1.8 35.3 47 -8.3 17.1
00:35 1014 29.94 843 24.89 2 35.7 45 -8.7 16.3
00:40 1014 29.94 843 24.89 2.1 35.9 49 -7.6 18.4
00:45 1014 29.94 843 24.89 1.8 35.2 50 -7.6 18.4
00:50 1014 29.94 843 24.89 1.7 35 50 -7.6 18.2
00:55 1014 29.94 843 24.89 1.6 35 50 -7.7 18.2
01:00 1014 29.94 843 24.89 1.6 34.9 51 -7.5 18.5
01:05 1014 29.94 843 24.89 1.6 34.8 51 -7.4 18.6
01:10 1014 29.94 843 24.89 1.6 34.9 50 -7.6 18.3
01:15 1014 29.94 843 24.89 1.7 35.1 50 -7.6 18.3
01:20 1014 29.94 843 24.89 1.8 35.3 50 -7.6 18.3
01:25 1014 29.94 843 24.89 2 35.5 47 -8.1 17.4
01:30 1014 29.94 843 24.89 2.3 36.1 48 -7.7 18.2
01:35 1014 29.94 843 24.89 2.2 36 52 -6.7 19.9
01:40 1014 29.94 844 24.92 1.8 35.2 53 -6.9 19.6
01:45 1014 29.94 844 24.92 1.7 35.1 51 -7.3 18.9
01:50 1014 29.94 844 24.92 1.8 35.3 50 -7.6 18.3
01:55 1014 29.94 844 24.92 2.1 35.8 49 -7.5 18.6
02:00 1014 29.94 844 24.92 2.2 36 49 -7.5 18.5
02:05 1014 29.94 844 24.92 2.2 36 50 -7.2 19
02:10 1014 29.94 843 24.89 2.2 35.9 50 -7.2 19.1
02:15 1014 29.94 843 24.89 2.1 35.7 52 -6.9 19.6
02:20 1014 29.94 843 24.89 2 35.7 52 -6.8 19.7
02:25 1014 29.94 843 24.89 2.2 36 50 -7.1 19.3
02:30 1014 29.94 843 24.89 2.4 36.2 50 -7.1 19.2
02:35 1014 29.94 843 24.89 2.4 36.3 51 -6.8 19.7
02:40 1014 29.94 843 24.89 2.3 36.1 52 -6.6 20.2
02:45 1014 29.94 843 24.89 2.2 36 52 -6.6 20.1
02:50 1014 29.94 844 24.92 2.3 36.2 52 -6.6 20.1
02:55 1014 29.94 844 24.92 2.4 36.2 52 -6.5 20.3
03:00 1014 29.94 844 24.92 2.4 36.4 53 -6.1 21
03:05 1015 29.97 844 24.92 2.4 36.4 53 -6.2 20.8
03:10 1015 29.97 844 24.92 2.5 36.5 52 -6.2 20.8
03:15 1015 29.97 844 24.92 2.5 36.6 53 -6.2 20.8
03:20 1015 29.97 844 24.92 2.6 36.6 53 -6.1 21
03:25 1015 29.97 844 24.92 2.6 36.8 53 -6.1 21.1
03:30 1015 29.97 844 24.92 2.6 36.7 54 -5.7 21.7
03:35 1015 29.97 844 24.92 2.5 36.5 54 -5.9 21.3
03:40 1014 29.94 844 24.92 2.6 36.6 52 -6.2 20.8
03:45 1014 29.94 844 24.92 2.8 37 51 -6.3 20.6
03:50 1014 29.94 844 24.92 3 37.4 51 -6.2 20.8
03:55 1014 29.94 844 24.92 3.1 37.6 51 -6 21.2
04:00 1015 29.97 844 24.92 3.2 37.8 50 -6.2 20.9
04:05 1015 29.97 844 24.92 3.2 37.8 50 -6.3 20.7
04:10 1015 29.97 844 24.92 3.2 37.7 50 -6.4 20.5
04:15 1015 29.97 844 24.92 3.2 37.7 51 -6 21.2
04:20 1015 29.97 844 24.92 3.1 37.6 51 -6 21.3
04:25 1015 29.97 844 24.92 3.1 37.6 52 -5.9 21.4
04:30 1015 29.97 844 24.92 3 37.5 51 -6 21.1
04:35 1015 29.97 844 24.92 3.2 37.7 51 -6.1 21
04:40 1015 29.97 844 24.92 3.3 37.9 50 -6.2 20.9
04:45 1015 29.97 844 24.92 3.4 38.1 50 -6.1 21.1
04:50 1015 29.97 844 24.92 3.5 38.3 50 -5.8 21.5
04:55 1015 29.97 844 24.92 3.6 38.4 50 -5.9 21.3
05:00 1015 29.97 844 24.92 3.5 38.4 51 -5.8 21.6
05:05 1015 29.97 844 24.92 3.5 38.3 50 -5.9 21.5
05:10 1015 29.97 844 24.92 3.5 38.2 51 -5.8 21.5
05:15 1015 29.97 844 24.92 3.5 38.4 51 -5.8 21.6
05:20 1015 29.97 844 24.92 3.5 38.3 50 -5.8 21.5
05:25 1015 29.97 844 24.92 3.6 38.5 51 -5.7 21.7
05:30 1015 29.97 844 24.92 3.6 38.5 52 -5.4 22.3
05:35 1015 29.97 844 24.92 3.6 38.5 53 -5.1 22.8
05:40 1015 29.97 844 24.92 3.5 38.4 52 -5.5 22.1
05:45 1015 29.97 844 24.92 3.8 38.8 50 -5.7 21.7
05:50 1015 29.97 844 24.92 4 39.2 51 -5.3 22.5
05:55 1015 29.97 844 24.92 3.9 39 50 -5.5 22.1
06:00 1015 29.97 844 24.92 3.9 39 51 -5.4 22.3
06:05 1015 29.97 844 24.92 3.9 39 51 -5.4 22.4
06:10 1015 29.97 844 24.92 3.9 39 51 -5.4 22.3
06:15 1015 29.97 844 24.92 3.9 39.1 51 -5.4 22.3
06:20 1015 29.97 844 24.92 4 39.1 52 -5 23
06:25 1015 29.97 844 24.92 4 39.2 49 -5.7 21.8
06:30 1015 29.97 844 24.92 4.1 39.4 48 -5.9 21.4
06:35 1015 29.97 844 24.92 4.1 39.4 49 -5.8 21.6
06:40 1015 29.97 844 24.92 4.2 39.5 48 -5.8 21.5
06:45 1015 29.97 844 24.92 4.2 39.6 49 -5.6 21.9
06:50 1015 29.97 844 24.92 4.3 39.7 47 -6.2 20.9
06:55 1015 29.97 844 24.92 4.4 39.9 47 -5.9 21.3
07:00 1015 29.97 844 24.92 4.5 40.1 46 -6.1 21
07:05 1015 29.97 844 24.92 4.5 40.2 47 -5.7 21.8
07:10 1015 29.97 844 24.92 4.4 39.9 48 -5.6 22
07:15 1015 29.97 844 24.92 4.3 39.8 49 -5.6 22
07:20 1015 29.97 844 24.92 4.1 39.4 51 -5.1 22.8
07:25 1015 29.97 844 24.92 3.8 38.9 53 -4.8 23.4
07:30 1015 29.97 844 24.92 3.8 38.8 53 -5 23
07:35 1015 29.97 845 24.95 3.6 38.5 56 -4.5 23.9
07:40 1015 29.97 844 24.92 3.4 38.2 55 -4.7 23.5
07:45 1015 29.97 844 24.92 3.5 38.3 53 -5.3 22.5
07:50 1015 29.97 845 24.95 3.7 38.6 53 -5 22.9
07:55 1015 29.97 845 24.95 3.6 38.5 54 -4.9 23.3
08:00 1015 29.97 844 24.92 3.7 38.6 50 -5.8 21.6
08:05 1015 29.97 844 24.92 4 39.3 50 -5.5 22.2
08:10 1015 29.97 844 24.92 4.1 39.4 50 -5.3 22.4
08:15 1015 29.97 844 24.92 4.1 39.4 51 -5.2 22.6
08:20 1015 29.97 844 24.92 4.1 39.3 51 -5.2 22.6
08:25 1015 29.97 844 24.92 4.2 39.5 49 -5.5 22.1
08:30 1015 29.97 844 24.92 4.3 39.7 48 -5.9 21.4
08:35 1015 29.97 844 24.92 4.4 39.9 48 -5.6 21.9
08:40 1015 29.97 844 24.92 4.6 40.3 46 -5.9 21.4
08:45 1015 29.97 845 24.95 4.6 40.2 49 -5.4 22.4
08:50 1015 29.97 844 24.92 4.2 39.5 51 -5 23
08:55 1015 29.97 844 24.92 3.9 39 51 -5.3 22.5
09:00 1015 29.97 844 24.92 3.9 39 51 -5.4 22.3
09:05 1015 29.97 845 24.95 4.1 39.4 48 -5.8 21.6
09:10 1015 29.97 844 24.92 4.5 40.1 47 -6 21.3
09:15 1015 29.97 844 24.92 4.6 40.3 47 -5.7 21.7
09:20 1015 29.97 844 24.92 4.7 40.5 45 -6.3 20.7
09:25 1015 29.97 844 24.92 4.9 40.8 45 -6.1 21
09:30 1015 29.97 845 24.95 4.9 40.8 46 -5.9 21.4
09:35 1016 30 845 24.95 4.9 40.8 45 -6 21.1
09:40 1016 30 845 24.95 4.9 40.8 45 -6.1 21
09:45 1016 30 845 24.95 4.8 40.6 47 -5.6 21.9
09:50 1016 30 845 24.95 4.7 40.5 46 -6 21.2
09:55 1016 30 845 24.95 4.8 40.6 46 -5.9 21.3
10:00 1016 30 845 24.95 4.9 40.7 44 -6.3 20.6
10:05 1016 30 845 24.95 4.9 40.8 46 -5.8 21.6
10:10 1016 30 845 24.95 4.9 40.8 45 -6.1 21.1
10:15 1016 30 845 24.95 4.9 40.9 45 -6 21.2
10:20 1016 30 845 24.95 4.9 40.8 46 -5.8 21.6
10:25 1016 30 845 24.95 5 40.9 45 -6 21.2
10:30 1016 30 845 24.95 5.1 41.2 44 -6.2 20.8
10:35 1016 30 845 24.95 5.2 41.4 43 -6.3 20.7
10:40 1016 30 845 24.95 5.3 41.5 43 -6.3 20.7
10:45 1016 30 845 24.95 5.3 41.6 43 -6.3 20.6
10:50 1016 30 845 24.95 5.3 41.6 43 -6.3 20.7
10:55 1016 30 845 24.95 5.5 41.9 41 -6.8 19.8
11:00 1016 30 845 24.95 5.6 42 42 -6.2 20.8
11:05 1016 30 845 24.95 5.5 41.9 43 -6.1 21.1
11:10 1016 30 846 24.98 5.4 41.8 41 -6.8 19.8
11:15 1017 30.03 846 24.98 5.5 42 42 -6.4 20.6
11:20 1017 30.03 846 24.98 5.5 41.9 42 -6.5 20.3
11:25 1017 30.03 846 24.98 5.5 41.9 42 -6.3 20.6
11:30 1017 30.03 846 24.98 5.6 42.1 41 -6.5 20.2
11:35 1017 30.03 846 24.98 5.5 42 42 -6.3 20.6
11:40 1017 30.03 846 24.98 5.6 42.1 41 -6.8 19.8
11:45 1017 30.03 846 24.98 5.7 42.3 41 -6.7 20
11:50 1017 30.03 846 24.98 5.6 42.1 41 -6.5 20.2
11:55 1017 30.03 846 24.98 5.7 42.2 42 -6.3 20.7
12:00 1017 30.03 846 24.98 5.6 42.2 40 -6.8 19.8
12:05 1017 30.03 846 24.98 5.7 42.3 41 -6.6 20
12:10 1017 30.03 846 24.98 5.6 42.1 40 -6.8 19.8
12:15 1017 30.03 846 24.98 5.7 42.2 41 -6.7 20
12:20 1017 30.03 846 24.98 5.6 42.2 42 -6.3 20.7
12:25 1017 30.03 846 24.98 5.6 42 42 -6.4 20.5
12:30 1017 30.03 846 24.98 5.5 42 42 -6.5 20.4
12:35 1017 30.03 846 24.98 5.4 41.7 43 -6.2 20.8
12:40 1016 30 846 24.98 5.5 41.8 41 -6.6 20.1
12:45 1016 30 846 24.98 5.5 41.9 41 -6.7 20
12:50 1016 30 846 24.98 5.6 42.1 41 -6.6 20.1
12:55 1016 30 846 24.98 5.6 42.1 40 -6.9 19.6
13:00 1016 30 846 24.98 5.7 42.2 39 -7.1 19.2
13:05 1016 30 846 24.98 5.8 42.4 41 -6.5 20.3
13:10 1016 30 846 24.98 5.6 42.1 40 -6.9 19.5
13:15 1016 30 846 24.98 5.7 42.2 41 -6.6 20.1
13:20 1016 30 845 24.95 5.6 42 41 -6.7 19.9
13:25 1016 30 845 24.95 5.6 42 40 -6.9 19.6
13:30 1016 30 845 24.95 5.6 42.1 39 -7.2 19.1
13:35 1016 30 845 24.95 5.7 42.3 39 -7 19.4
13:40 1016 30 845 24.95 5.6 42.1 39 -7.3 18.9
13:45 1016 30 845 24.95 5.7 42.3 39 -7.1 19.2
13:50 1016 30 845 24.95 5.7 42.2 40 -7.1 19.3
13:55 1016 30 845 24.95 5.7 42.3 40 -6.8 19.8
14:00 1016 30 845 24.95 5.6 42.1 41 -6.7 20
14:05 1016 30 845 24.95 5.6 42.1 40 -7 19.4
14:10 1016 30 845 24.95 5.6 42 40 -6.9 19.6
14:15 1016 30 845 24.95 5.6 42.1 39 -7.2 19.1
14:20 1016 30 845 24.95 5.7 42.3 39 -7.3 18.8
14:25 1016 30 845 24.95 5.8 42.4 41 -6.6 20
14:30 1016 30 845 24.95 5.6 42.1 40 -7.1 19.2
14:35 1016 30 845 24.95 5.8 42.4 39 -7.2 19
14:40 1016 30 845 24.95 5.7 42.2 39 -7.3 18.9
14:45 1016 30 845 24.95 5.9 42.6 39 -7 19.3
14:50 1016 30 845 24.95 5.8 42.5 38 -7.4 18.8
14:55 1016 30 845 24.95 6 42.7 38 -7.2 19.1
15:00 1016 30 845 24.95 5.9 42.6 40 -6.7 20
15:05 1016 30 845 24.95 5.6 42.1 41 -6.7 20
15:10 1016 30 845 24.95 5.6 42 41 -6.6 20.2
15:15 1016 30 845 24.95 5.6 42.1 40 -7 19.4
15:20 1016 30 845 24.95 5.6 42.2 41 -6.6 20
15:25 1016 30 846 24.98 5.7 42.3 39 -7 19.4
15:30 1016 30 846 24.98 5.8 42.4 37 -7.8 17.9
15:35 1016 30 846 24.98 6.1 42.9 37 -7.4 18.7
15:40 1016 30 846 24.98 6.1 43.1 36 -7.9 17.8
15:45 1017 30.03 846 24.98 6.1 43 36 -7.8 18
15:50 1017 30.03 846 24.98 6 42.8 39 -7.1 19.2
15:55 1017 30.03 846 24.98 5.8 42.5 39 -7.1 19.1
16:00 1017 30.03 846 24.98 5.8 42.5 39 -7.2 19.1
16:05 1017 30.03 846 24.98 5.8 42.4 40 -6.9 19.5
16:10 1017 30.03 847 25.01 5.7 42.2 38 -7.4 18.7
16:15 1018 30.06 847 25.01 5.6 42.1 41 -6.6 20.1
16:20 1018 30.06 847 25.01 5.4 41.8 42 -6.4 20.5
16:25 1018 30.06 847 25.01 5.3 41.6 42 -6.6 20.2
16:30 1018 30.06 847 25.01 5.3 41.6 41 -6.9 19.5
16:35 1018 30.06 847 25.01 5.4 41.7 41 -6.8 19.8
16:40 1018 30.06 847 25.01 5.4 41.7 39 -7.3 18.8
16:45 1018 30.06 847 25.01 5.5 41.9 40 -7 19.4
16:50 1018 30.06 847 25.01 5.4 41.8 40 -7 19.5
16:55 1018 30.06 847 25.01 5.5 42 40 -7 19.3
17:00 1018 30.06 847 25.01 5.5 41.9 40 -7 19.4
17:05 1018 30.06 847 25.01 5.5 41.9 40 -7.1 19.2
17:10 1018 30.06 847 25.01 5.4 41.7 42 -6.6 20.2
17:15 1018 30.06 847 25.01 5.3 41.5 41 -7 19.4
17:20 1018 30.06 847 25.01 5.4 41.7 41 -6.9 19.5
17:25 1018 30.06 847 25.01 5.4 41.6 41 -7 19.4
17:30 1018 30.06 847 25.01 5.3 41.5 42 -6.5 20.3
17:35 1018 30.06 848 25.04 5.2 41.4 44 -6.2 20.8
17:40 1018 30.06 848 25.04 5 41 45 -5.9 21.4
17:45 1019 30.09 848 25.04 4.9 40.7 44 -6.4 20.4
17:50 1019 30.09 848 25.04 5 41 44 -6.3 20.6
17:55 1019 30.09 848 25.04 5 41 43 -6.7 20
18:00 1019 30.09 848 25.04 5.2 41.3 42 -6.7 20
18:05 1019 30.09 848 25.04 5.1 41.1 43 -6.5 20.3
18:10 1019 30.09 848 25.04 5 41 43 -6.7 20
18:15 1019 30.09 848 25.04 5 41 42 -6.8 19.8
18:20 1019 30.09 848 25.04 4.9 40.8 44 -6.4 20.4
18:25 1019 30.09 848 25.04 4.7 40.5 44 -6.5 20.2
18:30 1019 30.09 848 25.04 4.7 40.5 43 -6.8 19.8
18:35 1019 30.09 848 25.04 4.8 40.6 43 -6.8 19.8
18:40 1019 30.09 848 25.04 4.7 40.5 44 -6.6 20.1
18:45 1019 30.09 848 25.04 4.7 40.4 44 -6.7 19.9
18:50 1019 30.09 848 25.04 4.7 40.4 42 -7 19.3
18:55 1019 30.09 848 25.04 4.7 40.5 43 -6.9 19.6
19:00 1019 30.09 848 25.04 4.6 40.2 43 -7 19.4
19:05 1019 30.09 848 25.04 4.7 40.4 43 -6.8 19.7
19:10 1019 30.09 848 25.04 4.6 40.3 44 -6.5 20.3
19:15 1019 30.09 848 25.04 4.5 40.1 44 -6.8 19.7
19:20 1019 30.09 848 25.04 4.5 40.1 43 -7 19.3
19:25 1019 30.09 848 25.04 4.6 40.3 41 -7.7 18.2
19:30 1019 30.09 848 25.04 4.7 40.5 42 -7.1 19.3
19:35 1019 30.09 849 25.07 4.6 40.3 41 -7.4 18.7
19:40 1019 30.09 849 25.07 4.7 40.4 43 -6.9 19.5
19:45 1019 30.09 849 25.07 4.5 40.1 43 -7 19.4
19:50 1020 30.12 849 25.07 4.6 40.2 42 -7.2 19
19:55 1020 30.12 849 25.07 4.6 40.2 43 -7.1 19.3
20:00 1020 30.12 849 25.07 4.6 40.2 42 -7.1 19.1
20:05 1020 30.12 849 25.07 4.6 40.2 42 -7.2 19
20:10 1020 30.12 849 25.07 4.5 40.1 43 -7.1 19.3
20:15 1020 30.12 849 25.07 4.4 39.9 42 -7.3 18.8
20:20 1020 30.12 849 25.07 4.4 39.8 43 -7.1 19.2
20:25 1020 30.12 849 25.07 4.3 39.8 44 -6.7 19.9
20:30 1020 30.12 849 25.07 4.3 39.7 44 -7 19.3
20:35 1020 30.12 849 25.07 4.3 39.7 44 -6.9 19.6
20:40 1020 30.12 849 25.07 4.2 39.6 44 -7.1 19.3
20:45 1020 30.12 849 25.07 4.2 39.6 44 -7.1 19.2
20:50 1020 30.12 849 25.07 4.2 39.6 44 -7.1 19.3
20:55 1020 30.12 849 25.07 4.1 39.5 43 -7.4 18.7
21:00 1020 30.12 849 25.07 4.3 39.7 43 -7.2 19
21:05 1020 30.12 849 25.07 4.2 39.5 43 -7.2 19
21:10 1020 30.12 849 25.07 4.1 39.3 44 -7 19.4
21:15 1020 30.12 850 25.1 3.9 39.1 46 -6.7 19.9
21:20 1020 30.12 850 25.1 3.7 38.7 46 -7 19.5
21:25 1020 30.12 850 25.1 3.8 38.8 45 -7.1 19.2
21:30 1021 30.15 850 25.1 3.9 39 44 -7.2 19
21:35 1021 30.15 850 25.1 3.9 39 44 -7.2 19
21:40 1021 30.15 850 25.1 3.9 39 45 -6.9 19.6
21:45 1021 30.15 850 25.1 3.9 38.9 46 -6.7 19.9
21:50 1021 30.15 850 25.1 3.8 38.8 46 -6.8 19.8
21:55 1021 30.15 850 25.1 3.6 38.5 48 -6.5 20.3
22:00 1021 30.15 850 25.1 3.5 38.2 48 -6.5 20.3
22:05 1021 30.15 850 25.1 3.4 38.1 47 -6.8 19.8
22:10 1021 30.15 851 25.13 3.4 38 48 -6.6 20
22:15 1021 30.15 851 25.13 3.4 38.1 46 -7 19.3
22:20 1021 30.15 851 25.13 3.5 38.3 47 -6.9 19.6
22:25 1022 30.18 851 25.13 3.6 38.4 47 -6.7 20
22:30 1022 30.18 851 25.13 3.5 38.4 48 -6.6 20.1
22:35 1022 30.18 851 25.13 3.5 38.3 49 -6.3 20.7
22:40 1022 30.18 851 25.13 3.4 38.1 49 -6.3 20.7
22:45 1022 30.18 851 25.13 3.4 38.2 49 -6.3 20.7
22:50 1022 30.18 851 25.13 3.4 38.2 50 -5.9 21.4
22:55 1022 30.18 851 25.13 3.2 37.7 56 -4.7 23.5
23:00 1022 30.18 851 25.13 2.6 36.7 60 -4.3 24.3
23:05 1022 30.18 852 25.16 2.3 36.1 64 -3.8 25.2
23:10 1022 30.18 852 25.16 2 35.7 68 -3.3 26
23:15 1023 30.21 852 25.16 1.8 35.2 71 -3 26.6
23:20 1023 30.21 852 25.16 1.5 34.7 72 -3 26.7
23:25 1023 30.21 852 25.16 1.4 34.5 74 -2.8 26.9
23:30 1023 30.21 852 25.16 1.2 34.2 74 -2.9 26.8
23:35 1023 30.21 852 25.16 1.1 34 74 -3 26.7
23:40 1023 30.21 852 25.16 1.1 33.9 74 -3.1 26.5
23:45 1023 30.21 852 25.16 1.1 34 75 -2.9 26.7
23:50 1023 30.21 853 25.19 1 33.8 76 -2.8 27
23:55 1023 30.21 853 25.19 0.9 33.5 77 -2.6 27.2
24:00 1024 30.24 853 25.19 0.7 33.3 79 -2.6 27.4